Time;durP1;ratioP1;P1;durP2;ratioP2;P2;SDS_P1;SDS_P2;PMS_P1;PMS_P2;Temp;Humidity;BMP_temperature;BMP_pressure;BME280_temperature;BME280_humidity;BME280_pressure;Samples;Min_cycle;Max_cycle;Signal;HPM_P1;HPM_P2
2023/12/18 00:00:55;;;;;;;2.13;1.70;;;;;;;;;;5052737;28;20205;-75
2023/12/18 00:03:21;;;;;;;2.77;1.40;;;;;;;;;;5075641;28;20287;-76
2023/12/18 00:05:47;;;;;;;2.87;1.63;;;;;;;;;;5078646;28;20193;-76
2023/12/18 00:08:13;;;;;;;1.93;1.50;;;;;;;;;;5070123;28;20671;-75
2023/12/18 00:10:39;;;;;;;2.07;1.60;;;;;;;;;;5071650;28;20250;-74
2023/12/18 00:13:05;;;;;;;2.33;1.60;;;;;;;;;;5067883;28;20628;-74
2023/12/18 00:15:31;;;;;;;2.60;1.60;;;;;;;;;;5070475;28;20591;-75
2023/12/18 00:17:58;;;;;;;1.83;1.47;;;;;;;;;;5074144;28;20256;-73
2023/12/18 00:20:24;;;;;;;3.10;2.03;;;;;;;;;;5071690;28;20198;-76
2023/12/18 00:22:50;;;;;;;1.87;1.47;;;;;;;;;;5071417;28;20215;-74
2023/12/18 00:25:16;;;;;;;2.50;1.57;;;;;;;;;;5076076;28;20205;-76
2023/12/18 00:27:42;;;;;;;2.83;1.80;;;;;;;;;;5076074;28;20317;-76
2023/12/18 00:30:08;;;;;;;3.10;1.63;;;;;;;;;;5070622;28;20196;-76
2023/12/18 00:32:34;;;;;;;3.63;1.90;;;;;;;;;;5068315;28;20599;-76
2023/12/18 00:35:00;;;;;;;3.33;1.87;;;;;;;;;;5073969;28;20238;-74
2023/12/18 00:37:27;;;;;;;3.87;2.00;;;;;;;;;;5053381;28;20692;-76
2023/12/18 00:39:53;;;;;;;2.13;1.70;;;;;;;;;;5067464;28;20210;-75
2023/12/18 00:42:19;;;;;;;3.03;1.83;;;;;;;;;;5073942;28;20206;-77
2023/12/18 00:44:45;;;;;;;2.90;1.77;;;;;;;;;;5069779;28;20262;-76
2023/12/18 00:47:11;;;;;;;2.93;1.93;;;;;;;;;;5069969;28;20306;-76
2023/12/18 00:49:37;;;;;;;1.87;1.50;;;;;;;;;;5067124;28;20262;-75
2023/12/18 00:52:03;;;;;;;2.90;1.60;;;;;;;;;;5078216;28;20232;-75
2023/12/18 00:54:29;;;;;;;4.47;2.00;;;;;;;;;;5054625;28;20220;-74
2023/12/18 00:56:55;;;;;;;1.63;1.50;;;;;;;;;;5072300;28;20273;-76
2023/12/18 00:59:21;;;;;;;2.67;1.93;;;;;;;;;;5073821;28;20697;-75
2023/12/18 01:01:47;;;;;;;2.73;1.83;;;;;;;;;;5075976;28;20567;-75
2023/12/18 01:04:13;;;;;;;3.70;2.47;;;;;;;;;;5075666;28;20312;-75
2023/12/18 01:06:39;;;;;;;3.70;2.07;;;;;;;;;;5069568;28;20273;-76
2023/12/18 01:09:05;;;;;;;2.10;1.50;;;;;;;;;;5054400;28;20684;-77
2023/12/18 01:11:32;;;;;;;4.17;2.40;;;;;;;;;;5072724;28;20218;-76
2023/12/18 01:13:58;;;;;;;3.47;2.00;;;;;;;;;;5071882;28;20214;-77
2023/12/18 01:16:24;;;;;;;5.50;2.07;;;;;;;;;;5072089;28;20207;-76
2023/12/18 01:18:50;;;;;;;5.80;2.23;;;;;;;;;;5057705;28;20207;-76
2023/12/18 01:21:16;;;;;;;2.57;2.03;;;;;;;;;;5056246;28;20202;-77
2023/12/18 01:23:42;;;;;;;3.57;2.00;;;;;;;;;;5070398;28;20175;-76
2023/12/18 01:26:08;;;;;;;2.93;2.10;;;;;;;;;;5054343;28;20218;-77
2023/12/18 01:28:34;;;;;;;2.47;1.83;;;;;;;;;;5070358;28;20206;-80
2023/12/18 01:31:00;;;;;;;2.73;1.50;;;;;;;;;;5073631;28;20218;-77
2023/12/18 01:33:26;;;;;;;3.90;1.90;;;;;;;;;;5067590;28;20206;-79
2023/12/18 01:35:52;;;;;;;3.67;2.00;;;;;;;;;;5070027;28;20185;-78
2023/12/18 01:38:18;;;;;;;3.53;2.00;;;;;;;;;;5055236;28;20175;-79
2023/12/18 01:40:44;;;;;;;3.13;1.73;;;;;;;;;;5068811;28;20207;-78
2023/12/18 01:43:29;;;;;;;2.90;1.90;;;;;;;;;;5073949;28;20230;-77
2023/12/18 01:45:58;;;;;;;2.63;1.77;;;;;;;;;;5074543;28;20584;-77
2023/12/18 01:48:25;;;;;;;3.40;2.10;;;;;;;;;;5070304;28;20260;-77
2023/12/18 01:50:53;;;;;;;5.10;2.07;;;;;;;;;;5072173;28;20210;-78
2023/12/18 01:53:19;;;;;;;3.80;1.80;;;;;;;;;;5073650;28;20220;-76
2023/12/18 01:55:45;;;;;;;3.97;2.40;;;;;;;;;;5068388;28;20211;-77
2023/12/18 01:58:12;;;;;;;2.57;1.73;;;;;;;;;;5059633;28;20204;-78
2023/12/18 02:00:39;;;;;;;4.10;2.10;;;;;;;;;;5054481;28;20285;-77
2023/12/18 02:03:05;;;;;;;5.03;2.27;;;;;;;;;;5072595;28;20167;-76
2023/12/18 02:05:32;;;;;;;5.57;2.20;;;;;;;;;;5073997;28;20330;-77
2023/12/18 02:07:58;;;;;;;5.43;2.47;;;;;;;;;;5066736;28;20259;-74
2023/12/18 02:10:24;;;;;;;3.00;2.40;;;;;;;;;;5072720;28;20210;-75
2023/12/18 02:12:50;;;;;;;3.23;2.13;;;;;;;;;;5075202;28;20215;-76
2023/12/18 02:15:16;;;;;;;3.00;2.20;;;;;;;;;;5074833;28;20270;-74
2023/12/18 02:17:42;;;;;;;4.23;2.33;;;;;;;;;;5077440;28;20202;-75
2023/12/18 02:20:08;;;;;;;3.57;2.20;;;;;;;;;;5067467;28;20205;-75
2023/12/18 02:22:47;;;;;;;3.33;2.13;;;;;;;;;;5076026;28;20211;-74
2023/12/18 02:25:13;;;;;;;4.57;2.30;;;;;;;;;;5066557;28;20199;-73
2023/12/18 02:27:39;;;;;;;4.03;2.17;;;;;;;;;;5072327;28;20207;-74
2023/12/18 02:30:05;;;;;;;4.23;2.17;;;;;;;;;;5081071;28;20197;-75
2023/12/18 02:32:31;;;;;;;3.93;2.50;;;;;;;;;;5074808;28;20175;-76
2023/12/18 02:34:57;;;;;;;4.10;3.00;;;;;;;;;;5075351;28;20228;-74
2023/12/18 02:37:24;;;;;;;4.67;3.10;;;;;;;;;;5070604;28;20289;-75
2023/12/18 02:39:50;;;;;;;6.30;3.20;;;;;;;;;;5075447;28;20282;-75
2023/12/18 02:42:16;;;;;;;6.97;3.77;;;;;;;;;;5077140;28;20689;-75
2023/12/18 02:44:42;;;;;;;6.37;3.40;;;;;;;;;;5075147;28;20186;-76
2023/12/18 02:47:08;;;;;;;6.60;3.60;;;;;;;;;;5070324;28;20212;-75
2023/12/18 02:49:34;;;;;;;4.20;3.00;;;;;;;;;;5076270;28;20257;-75
2023/12/18 02:52:00;;;;;;;6.67;3.67;;;;;;;;;;5072432;28;20212;-76
2023/12/18 02:54:26;;;;;;;6.23;3.73;;;;;;;;;;5077416;28;20232;-75
2023/12/18 02:56:52;;;;;;;4.83;3.60;;;;;;;;;;5078087;28;20199;-76
2023/12/18 02:59:18;;;;;;;7.23;3.90;;;;;;;;;;5083700;28;20206;-75
2023/12/18 03:01:44;;;;;;;7.77;4.27;;;;;;;;;;5068957;28;20218;-76
2023/12/18 03:04:10;;;;;;;6.73;4.43;;;;;;;;;;5068621;28;20597;-76
2023/12/18 03:06:36;;;;;;;12.23;5.23;;;;;;;;;;5071563;28;20339;-74
2023/12/18 03:09:03;;;;;;;8.57;5.13;;;;;;;;;;5083013;28;20700;-77
2023/12/18 03:11:29;;;;;;;6.40;4.33;;;;;;;;;;5072362;28;20178;-75
2023/12/18 03:13:55;;;;;;;8.90;5.10;;;;;;;;;;5075509;28;20233;-76
2023/12/18 03:16:21;;;;;;;7.13;4.77;;;;;;;;;;5058796;28;20218;-76
2023/12/18 03:18:47;;;;;;;6.23;4.23;;;;;;;;;;5072990;28;20203;-75
2023/12/18 03:21:13;;;;;;;10.00;5.50;;;;;;;;;;5072636;28;20221;-75
2023/12/18 03:23:39;;;;;;;10.10;6.23;;;;;;;;;;5070369;28;20668;-73
2023/12/18 03:26:05;;;;;;;9.90;5.30;;;;;;;;;;5076132;28;20210;-76
2023/12/18 03:28:31;;;;;;;13.53;6.70;;;;;;;;;;5073066;28;20211;-75
2023/12/18 03:30:57;;;;;;;10.03;5.30;;;;;;;;;;5071769;28;20301;-75
2023/12/18 03:33:23;;;;;;;10.00;5.57;;;;;;;;;;5074188;28;20286;-75
2023/12/18 03:35:49;;;;;;;8.77;5.30;;;;;;;;;;5069238;28;20631;-74
2023/12/18 03:38:15;;;;;;;11.23;5.93;;;;;;;;;;5066462;28;20346;-75
2023/12/18 03:40:41;;;;;;;6.83;4.47;;;;;;;;;;5076864;28;20217;-75
2023/12/18 03:43:07;;;;;;;10.53;5.87;;;;;;;;;;5057444;28;20297;-74
2023/12/18 03:45:33;;;;;;;10.60;5.50;;;;;;;;;;5059768;28;20301;-75
2023/12/18 03:47:59;;;;;;;12.53;5.20;;;;;;;;;;5074616;28;20261;-75
2023/12/18 03:50:26;;;;;;;9.20;5.60;;;;;;;;;;5072880;28;20217;-75
2023/12/18 03:52:52;;;;;;;15.30;6.67;;;;;;;;;;5072915;28;20221;-75
2023/12/18 03:55:18;;;;;;;14.63;7.30;;;;;;;;;;5059568;28;20226;-75
2023/12/18 03:57:44;;;;;;;9.23;5.67;;;;;;;;;;5067232;28;20218;-76
2023/12/18 04:00:11;;;;;;;9.17;6.37;;;;;;;;;;5074004;28;20272;-75
2023/12/18 04:02:37;;;;;;;14.90;6.87;;;;;;;;;;5076906;28;20171;-75
2023/12/18 04:05:03;;;;;;;10.93;5.73;;;;;;;;;;5070317;28;20294;-75
2023/12/18 04:07:29;;;;;;;9.93;6.20;;;;;;;;;;5076533;28;20234;-75
2023/12/18 04:09:55;;;;;;;9.60;6.53;;;;;;;;;;5071787;28;20279;-75
2023/12/18 04:12:21;;;;;;;9.83;6.30;;;;;;;;;;5057417;28;20312;-76
2023/12/18 04:14:47;;;;;;;12.53;6.10;;;;;;;;;;5073767;28;20207;-76
2023/12/18 04:17:13;;;;;;;10.70;6.00;;;;;;;;;;5073473;28;20288;-76
2023/12/18 04:19:39;;;;;;;10.33;6.03;;;;;;;;;;5077975;28;20327;-73
2023/12/18 04:22:05;;;;;;;9.07;5.83;;;;;;;;;;5071355;28;20207;-76
2023/12/18 04:24:31;;;;;;;12.40;6.10;;;;;;;;;;5071626;28;20207;-76
2023/12/18 04:26:58;;;;;;;11.20;6.73;;;;;;;;;;5055752;28;20221;-75
2023/12/18 04:29:24;;;;;;;9.90;6.37;;;;;;;;;;5072902;28;20199;-76
2023/12/18 04:31:53;;;;;;;10.03;6.53;;;;;;;;;;5072299;28;20207;-75
2023/12/18 04:34:19;;;;;;;10.87;5.93;;;;;;;;;;5074095;28;20202;-75
2023/12/18 04:36:45;;;;;;;10.90;7.03;;;;;;;;;;5071882;28;20214;-76
2023/12/18 04:39:11;;;;;;;11.20;6.73;;;;;;;;;;5078103;28;20226;-77
2023/12/18 04:41:37;;;;;;;13.27;6.33;;;;;;;;;;5071513;28;20185;-76
2023/12/18 04:44:05;;;;;;;15.27;6.97;;;;;;;;;;5069272;28;20202;-74
2023/12/18 04:46:35;;;;;;;10.57;7.07;;;;;;;;;;5076545;28;20214;-76
2023/12/18 04:49:01;;;;;;;10.57;6.57;;;;;;;;;;5073332;28;20233;-75
2023/12/18 04:51:27;;;;;;;11.40;6.70;;;;;;;;;;5074907;28;20740;-77
2023/12/18 04:53:53;;;;;;;15.60;7.20;;;;;;;;;;5074747;28;20228;-77
2023/12/18 04:56:19;;;;;;;10.53;6.23;;;;;;;;;;5069377;28;20199;-78
2023/12/18 04:58:45;;;;;;;9.67;6.70;;;;;;;;;;5072988;28;20693;-77
2023/12/18 05:01:11;;;;;;;13.80;8.93;;;;;;;;;;5057843;28;20430;-77
2023/12/18 05:03:37;;;;;;;10.87;7.30;;;;;;;;;;5071936;28;20772;-77
2023/12/18 05:06:03;;;;;;;11.00;6.70;;;;;;;;;;5071344;28;20198;-77
2023/12/18 05:08:30;;;;;;;12.20;7.00;;;;;;;;;;5073520;28;20171;-76
2023/12/18 05:10:56;;;;;;;11.93;6.90;;;;;;;;;;5070156;28;20271;-76
2023/12/18 05:13:22;;;;;;;11.80;6.83;;;;;;;;;;5074308;28;20222;-76
2023/12/18 05:15:48;;;;;;;14.77;7.50;;;;;;;;;;5058686;28;20260;-76
2023/12/18 05:18:14;;;;;;;15.57;7.47;;;;;;;;;;5072159;28;20222;-76
2023/12/18 05:20:40;;;;;;;16.00;7.77;;;;;;;;;;5071780;28;20568;-75
2023/12/18 05:23:06;;;;;;;14.10;7.60;;;;;;;;;;5069872;28;20901;-77
2023/12/18 05:25:32;;;;;;;13.17;7.00;;;;;;;;;;5075417;28;20215;-76
2023/12/18 05:27:58;;;;;;;11.33;7.97;;;;;;;;;;5071119;28;20217;-77
2023/12/18 05:30:24;;;;;;;12.87;7.33;;;;;;;;;;5062589;28;20244;-76
2023/12/18 05:32:50;;;;;;;13.07;6.80;;;;;;;;;;5056534;28;20621;-78
2023/12/18 05:35:17;;;;;;;10.33;6.77;;;;;;;;;;5067844;28;20669;-76
2023/12/18 05:37:43;;;;;;;12.27;7.20;;;;;;;;;;5073952;28;20230;-76
2023/12/18 05:40:09;;;;;;;10.87;6.30;;;;;;;;;;5066101;28;20249;-74
2023/12/18 05:42:35;;;;;;;9.63;6.87;;;;;;;;;;5073216;28;20214;-75
2023/12/18 05:45:01;;;;;;;10.20;6.57;;;;;;;;;;5075301;28;20239;-75
2023/12/18 05:47:27;;;;;;;12.23;7.20;;;;;;;;;;5078090;28;20218;-75
2023/12/18 05:49:53;;;;;;;10.23;7.37;;;;;;;;;;5076976;28;20268;-74
2023/12/18 05:52:19;;;;;;;12.10;6.73;;;;;;;;;;5080315;28;20226;-75
2023/12/18 05:54:45;;;;;;;13.27;7.27;;;;;;;;;;5073230;28;20246;-76
2023/12/18 05:57:16;;;;;;;11.43;7.00;;;;;;;;;;5057427;28;20225;-76
2023/12/18 05:59:42;;;;;;;11.27;7.70;;;;;;;;;;5065145;28;20594;-74
2023/12/18 06:02:08;;;;;;;11.53;6.80;;;;;;;;;;5077732;28;20218;-78
2023/12/18 06:04:34;;;;;;;11.77;6.77;;;;;;;;;;5078249;28;20206;-76
2023/12/18 06:07:00;;;;;;;14.73;7.27;;;;;;;;;;5074811;28;20218;-76
2023/12/18 06:09:26;;;;;;;14.40;7.03;;;;;;;;;;5071143;28;20725;-76
2023/12/18 06:11:52;;;;;;;15.53;7.00;;;;;;;;;;5070496;28;20185;-74
2023/12/18 06:14:18;;;;;;;12.83;6.90;;;;;;;;;;5070282;28;20191;-75
2023/12/18 06:16:44;;;;;;;8.97;6.50;;;;;;;;;;5070753;28;20317;-76
2023/12/18 06:19:10;;;;;;;12.77;7.00;;;;;;;;;;5073699;28;20211;-75
2023/12/18 06:21:43;;;;;;;8.07;6.03;;;;;;;;;;5067467;28;20206;-76
2023/12/18 06:24:10;;;;;;;11.73;6.63;;;;;;;;;;5071418;28;20716;-76
2023/12/18 06:26:36;;;;;;;12.53;6.50;;;;;;;;;;5060663;28;20195;-76
2023/12/18 06:29:02;;;;;;;16.60;7.60;;;;;;;;;;5075310;28;20289;-76
2023/12/18 06:31:28;;;;;;;13.67;7.67;;;;;;;;;;5079214;28;20703;-72
2023/12/18 06:33:54;;;;;;;18.20;7.77;;;;;;;;;;5077020;28;20212;-76
2023/12/18 06:36:20;;;;;;;11.60;7.30;;;;;;;;;;5074049;28;20709;-75
2023/12/18 06:38:46;;;;;;;13.00;7.77;;;;;;;;;;5079343;28;20185;-73
2023/12/18 06:41:12;;;;;;;12.13;7.23;;;;;;;;;;5072298;28;20217;-74
2023/12/18 06:43:39;;;;;;;11.00;7.47;;;;;;;;;;5070854;28;20736;-73
2023/12/18 06:46:05;;;;;;;10.40;7.47;;;;;;;;;;5070360;28;20246;-75
2023/12/18 06:48:32;;;;;;;13.20;7.40;;;;;;;;;;5070643;28;20210;-75
2023/12/18 06:50:58;;;;;;;12.67;7.23;;;;;;;;;;5070509;28;20202;-73
2023/12/18 06:53:25;;;;;;;11.93;7.77;;;;;;;;;;5069667;28;20171;-74
2023/12/18 06:55:52;;;;;;;11.20;7.60;;;;;;;;;;5068847;28;20253;-76
2023/12/18 06:58:18;;;;;;;17.03;8.07;;;;;;;;;;5072027;28;20210;-75
2023/12/18 07:00:44;;;;;;;12.10;7.37;;;;;;;;;;5067867;28;20226;-77
2023/12/18 07:03:10;;;;;;;15.90;7.40;;;;;;;;;;5077750;28;20591;-75
2023/12/18 07:05:36;;;;;;;13.73;6.40;;;;;;;;;;5069944;28;20180;-73
2023/12/18 07:08:02;;;;;;;11.90;6.93;;;;;;;;;;5072614;28;20214;-73
2023/12/18 07:10:28;;;;;;;12.53;6.97;;;;;;;;;;5078653;28;20229;-73
2023/12/18 07:12:54;;;;;;;14.27;7.10;;;;;;;;;;5080120;28;20226;-74
2023/12/18 07:15:23;;;;;;;18.00;8.23;;;;;;;;;;5069521;28;20250;-74
2023/12/18 07:17:49;;;;;;;11.73;7.20;;;;;;;;;;5078305;28;20203;-73
2023/12/18 07:20:15;;;;;;;10.33;6.13;;;;;;;;;;5071641;28;20690;-74
2023/12/18 07:22:42;;;;;;;11.77;6.47;;;;;;;;;;5072208;28;20211;-74
2023/12/18 07:25:11;;;;;;;13.63;7.80;;;;;;;;;;5078048;28;20199;-74
2023/12/18 07:27:37;;;;;;;12.23;6.83;;;;;;;;;;5079331;28;20210;-74
2023/12/18 07:30:04;;;;;;;10.87;7.27;;;;;;;;;;5066329;28;20685;-74
2023/12/18 07:32:31;;;;;;;10.17;6.40;;;;;;;;;;5070578;28;20210;-74
2023/12/18 07:34:59;;;;;;;10.90;6.83;;;;;;;;;;5054573;28;20203;-75
2023/12/18 07:37:26;;;;;;;13.73;7.00;;;;;;;;;;5073086;28;20240;-74
2023/12/18 07:39:52;;;;;;;11.90;6.53;;;;;;;;;;5067292;28;20213;-74
2023/12/18 07:42:18;;;;;;;15.13;7.03;;;;;;;;;;5078567;28;20226;-73
2023/12/18 07:44:44;;;;;;;14.43;6.93;;;;;;;;;;5067205;28;20206;-74
2023/12/18 07:47:10;;;;;;;10.17;6.23;;;;;;;;;;5071169;28;20207;-74
2023/12/18 07:49:36;;;;;;;16.63;6.70;;;;;;;;;;5067993;28;20588;-74
2023/12/18 07:52:02;;;;;;;10.97;6.17;;;;;;;;;;5069499;28;20207;-73
2023/12/18 07:54:28;;;;;;;11.27;6.50;;;;;;;;;;5072308;28;20584;-73
2023/12/18 07:56:54;;;;;;;10.83;7.20;;;;;;;;;;5075404;28;20203;-75
2023/12/18 07:59:20;;;;;;;13.10;6.50;;;;;;;;;;5062882;28;20197;-75
2023/12/18 08:01:46;;;;;;;14.10;7.57;;;;;;;;;;5072887;28;20746;-75
2023/12/18 08:04:13;;;;;;;14.60;6.93;;;;;;;;;;5069557;28;20207;-76
2023/12/18 08:06:39;;;;;;;10.10;6.40;;;;;;;;;;5066475;28;20206;-74
2023/12/18 08:09:06;;;;;;;12.47;6.07;;;;;;;;;;5070706;28;20190;-75
2023/12/18 08:11:32;;;;;;;8.33;6.10;;;;;;;;;;5055339;28;20180;-74
2023/12/18 08:13:58;;;;;;;12.97;6.73;;;;;;;;;;5069566;28;20693;-73
2023/12/18 08:16:24;;;;;;;11.27;5.93;;;;;;;;;;5074976;28;20213;-74
2023/12/18 08:18:50;;;;;;;12.43;6.00;;;;;;;;;;5071507;28;20199;-73
2023/12/18 08:21:16;;;;;;;13.60;6.33;;;;;;;;;;5072492;28;20209;-74
2023/12/18 08:23:42;;;;;;;12.57;6.27;;;;;;;;;;5069110;28;20179;-74
2023/12/18 08:26:11;;;;;;;9.30;5.77;;;;;;;;;;5072786;28;20301;-72
2023/12/18 08:28:46;;;;;;;11.13;6.03;;;;;;;;;;5071938;28;20203;-74
2023/12/18 08:31:12;;;;;;;9.60;5.77;;;;;;;;;;5072074;28;20217;-74
2023/12/18 08:33:39;;;;;;;11.40;5.83;;;;;;;;;;5072725;28;20696;-73
2023/12/18 08:36:05;;;;;;;8.67;5.77;;;;;;;;;;5071745;28;20564;-75
2023/12/18 08:38:31;;;;;;;10.60;6.23;;;;;;;;;;5070594;28;20638;-74
2023/12/18 08:40:57;;;;;;;10.27;6.20;;;;;;;;;;5076759;28;20693;-73
2023/12/18 08:43:23;;;;;;;11.13;5.70;;;;;;;;;;5074522;28;20348;-75
2023/12/18 08:45:50;;;;;;;10.40;5.53;;;;;;;;;;5073624;28;20524;-76
2023/12/18 08:48:16;;;;;;;8.73;5.80;;;;;;;;;;5072815;28;20879;-74
2023/12/18 08:50:42;;;;;;;11.40;6.00;;;;;;;;;;5077740;28;20245;-75
2023/12/18 08:53:08;;;;;;;9.90;5.90;;;;;;;;;;5072671;28;20341;-73
2023/12/18 08:55:38;;;;;;;9.37;6.20;;;;;;;;;;5075913;28;20293;-75
2023/12/18 08:58:05;;;;;;;8.30;5.80;;;;;;;;;;5055751;28;20215;-74
2023/12/18 09:00:31;;;;;;;10.23;5.60;;;;;;;;;;5076756;28;20213;-75
2023/12/18 09:02:58;;;;;;;8.03;5.30;;;;;;;;;;5069329;28;20541;-75
2023/12/18 09:05:24;;;;;;;9.83;5.93;;;;;;;;;;5075689;28;20636;-75
2023/12/18 09:07:50;;;;;;;9.73;5.33;;;;;;;;;;5067535;28;20320;-75
2023/12/18 09:10:22;;;;;;;7.30;4.67;;;;;;;;;;5072094;28;20218;-74
2023/12/18 09:12:52;;;;;;;7.83;5.20;;;;;;;;;;5073115;28;20381;-76
2023/12/18 09:15:18;;;;;;;9.40;5.77;;;;;;;;;;5069981;28;20297;-75
2023/12/18 09:17:44;;;;;;;10.80;5.93;;;;;;;;;;5067669;28;20200;-77
2023/12/18 09:20:10;;;;;;;10.07;5.60;;;;;;;;;;5072551;28;20225;-75
2023/12/18 09:22:37;;;;;;;10.77;5.90;;;;;;;;;;5052581;28;20222;-76
2023/12/18 09:25:03;;;;;;;9.13;5.60;;;;;;;;;;5074862;28;20206;-75
2023/12/18 09:27:30;;;;;;;9.53;5.47;;;;;;;;;;5066958;28;20309;-74
2023/12/18 09:29:56;;;;;;;11.80;5.90;;;;;;;;;;5069963;28;20198;-74
2023/12/18 09:32:22;;;;;;;9.97;6.23;;;;;;;;;;5077025;28;20201;-74
2023/12/18 09:34:48;;;;;;;11.13;6.23;;;;;;;;;;5065897;28;20294;-74
2023/12/18 09:37:14;;;;;;;14.40;6.23;;;;;;;;;;5069382;28;20231;-74
2023/12/18 09:39:43;;;;;;;9.43;5.30;;;;;;;;;;5068268;28;20207;-74
2023/12/18 09:42:10;;;;;;;9.27;5.40;;;;;;;;;;5065351;28;20234;-75
2023/12/18 09:44:37;;;;;;;20.07;9.97;;;;;;;;;;5073118;28;20258;-74
2023/12/18 09:47:03;;;;;;;14.73;6.20;;;;;;;;;;5058264;28;20210;-74
2023/12/18 09:49:29;;;;;;;10.43;6.43;;;;;;;;;;5072197;28;20222;-73
2023/12/18 09:52:00;;;;;;;9.47;5.67;;;;;;;;;;5076817;28;20734;-76
2023/12/18 09:54:26;;;;;;;10.00;5.40;;;;;;;;;;5073970;28;20234;-74
2023/12/18 09:56:53;;;;;;;9.23;6.47;;;;;;;;;;5066941;28;20195;-75
2023/12/18 09:59:19;;;;;;;10.97;6.33;;;;;;;;;;5074072;28;20175;-74
2023/12/18 10:01:45;;;;;;;11.63;5.73;;;;;;;;;;5071172;28;20210;-74
2023/12/18 10:04:11;;;;;;;7.43;5.57;;;;;;;;;;5071487;28;20217;-75
2023/12/18 10:06:37;;;;;;;8.63;5.50;;;;;;;;;;5072354;28;20222;-74
2023/12/18 10:09:04;;;;;;;10.13;6.23;;;;;;;;;;5070502;28;20182;-75
2023/12/18 10:11:30;;;;;;;9.53;6.13;;;;;;;;;;5072725;28;20694;-74
2023/12/18 10:13:56;;;;;;;10.57;6.77;;;;;;;;;;5071847;28;20230;-74
2023/12/18 10:16:22;;;;;;;9.83;6.87;;;;;;;;;;5072145;28;20218;-74
2023/12/18 10:18:48;;;;;;;8.83;5.83;;;;;;;;;;5071271;28;20250;-73
2023/12/18 10:21:21;;;;;;;10.73;6.40;;;;;;;;;;5071856;28;20682;-74
2023/12/18 10:23:47;;;;;;;11.10;6.83;;;;;;;;;;5073721;28;20175;-74
2023/12/18 10:26:13;;;;;;;10.37;6.47;;;;;;;;;;5072701;28;20217;-74
2023/12/18 10:28:39;;;;;;;13.30;6.57;;;;;;;;;;5068238;28;21978;-74
2023/12/18 10:31:08;;;;;;;12.00;6.10;;;;;;;;;;5068460;28;20222;-74
2023/12/18 10:33:34;;;;;;;19.23;12.07;;;;;;;;;;5072179;28;20218;-74
2023/12/18 10:36:00;;;;;;;13.53;7.20;;;;;;;;;;5073976;28;20398;-74
2023/12/18 10:38:31;;;;;;;9.73;6.23;;;;;;;;;;5075870;28;20179;-74
2023/12/18 10:41:00;;;;;;;9.37;6.03;;;;;;;;;;5071578;28;20214;-72
2023/12/18 10:43:26;;;;;;;9.50;6.50;;;;;;;;;;5076516;28;20207;-74
2023/12/18 10:45:53;;;;;;;10.60;5.57;;;;;;;;;;5082429;28;20852;-75
2023/12/18 10:48:22;;;;;;;10.23;6.30;;;;;;;;;;5079825;28;20245;-74
2023/12/18 10:50:49;;;;;;;10.30;5.77;;;;;;;;;;5071260;28;20587;-73
2023/12/18 10:53:18;;;;;;;9.77;6.07;;;;;;;;;;5068393;28;20183;-72
2023/12/18 10:55:44;;;;;;;13.60;6.70;;;;;;;;;;5072464;28;20289;-74
2023/12/18 10:58:11;;;;;;;13.43;6.30;;;;;;;;;;5072586;28;20293;-74
2023/12/18 11:00:38;;;;;;;13.10;6.50;;;;;;;;;;5068460;28;20203;-75
2023/12/18 11:03:05;;;;;;;9.73;6.37;;;;;;;;;;5056942;28;20171;-75
2023/12/18 11:05:32;;;;;;;12.97;6.17;;;;;;;;;;5072519;28;20179;-75
2023/12/18 11:07:58;;;;;;;13.63;6.77;;;;;;;;;;5071072;28;20210;-74
2023/12/18 11:10:27;;;;;;;12.97;6.67;;;;;;;;;;5074186;28;20218;-74
2023/12/18 11:13:02;;;;;;;9.23;6.30;;;;;;;;;;5077186;28;20214;-73
2023/12/18 11:15:51;;;;;;;16.10;6.43;;;;;;;;;;5072102;28;20218;-73
2023/12/18 11:18:40;;;;;;;11.67;6.63;;;;;;;;;;5035447;28;20230;-74
2023/12/18 11:21:06;;;;;;;14.17;6.50;;;;;;;;;;5028001;28;20191;-75
2023/12/18 11:23:39;;;;;;;11.40;6.90;;;;;;;;;;5071231;28;20233;-75
2023/12/18 11:26:08;;;;;;;11.23;6.70;;;;;;;;;;5072523;28;20328;-75
2023/12/18 11:28:35;;;;;;;13.20;7.10;;;;;;;;;;5059127;28;20689;-75
2023/12/18 11:31:02;;;;;;;12.27;6.70;;;;;;;;;;5080739;28;20221;-74
2023/12/18 11:33:28;;;;;;;7.97;5.50;;;;;;;;;;5073704;28;20215;-72
2023/12/18 11:35:56;;;;;;;11.87;7.57;;;;;;;;;;5071154;28;20187;-75
2023/12/18 11:38:24;;;;;;;11.70;6.40;;;;;;;;;;5070693;28;20167;-73
2023/12/18 11:40:52;;;;;;;14.23;6.93;;;;;;;;;;5071652;28;20237;-74
2023/12/18 11:43:37;;;;;;;13.50;6.97;;;;;;;;;;5071873;28;20214;-72
2023/12/18 11:46:07;;;;;;;10.07;6.63;;;;;;;;;;5072996;28;20256;-74
2023/12/18 11:48:34;;;;;;;10.40;6.03;;;;;;;;;;5054554;28;20218;-75
2023/12/18 11:51:02;;;;;;;14.57;7.17;;;;;;;;;;5070906;28;20234;-74
2023/12/18 11:53:35;;;;;;;14.03;7.33;;;;;;;;;;5076269;28;20182;-76
2023/12/18 11:56:11;;;;;;;15.30;7.03;;;;;;;;;;5069545;28;20203;-73
2023/12/18 11:58:38;;;;;;;14.23;7.00;;;;;;;;;;5072077;28;20222;-74
2023/12/18 12:01:05;;;;;;;13.83;7.00;;;;;;;;;;5070426;28;20207;-75
2023/12/18 12:03:34;;;;;;;13.07;6.70;;;;;;;;;;5074966;28;20218;-75
2023/12/18 12:06:02;;;;;;;13.20;7.77;;;;;;;;;;5066182;28;20229;-76
2023/12/18 12:08:28;;;;;;;13.57;8.20;;;;;;;;;;5072363;28;20186;-73
2023/12/18 12:10:55;;;;;;;15.17;7.30;;;;;;;;;;5072449;28;20210;-74
2023/12/18 12:13:23;;;;;;;13.23;7.33;;;;;;;;;;5062742;28;20215;-73
2023/12/18 12:15:52;;;;;;;12.40;7.30;;;;;;;;;;5067947;28;20581;-74
2023/12/18 12:18:18;;;;;;;12.00;7.13;;;;;;;;;;5073949;28;20293;-73
2023/12/18 12:20:44;;;;;;;12.73;6.67;;;;;;;;;;5053302;28;20634;-74
2023/12/18 12:23:10;;;;;;;10.00;7.10;;;;;;;;;;5059455;28;20629;-75
2023/12/18 12:25:36;;;;;;;11.93;6.77;;;;;;;;;;5073892;28;20763;-74
2023/12/18 12:28:02;;;;;;;13.17;6.97;;;;;;;;;;5076502;28;20211;-73
2023/12/18 12:30:28;;;;;;;11.40;6.23;;;;;;;;;;5072993;28;20592;-72
2023/12/18 12:32:54;;;;;;;10.47;6.37;;;;;;;;;;5077339;28;20179;-74
2023/12/18 12:35:20;;;;;;;11.20;6.50;;;;;;;;;;5052175;28;20182;-74
2023/12/18 12:37:46;;;;;;;10.13;6.20;;;;;;;;;;5074452;28;20275;-74
2023/12/18 12:40:12;;;;;;;10.80;6.57;;;;;;;;;;5072521;28;20202;-73
2023/12/18 12:42:40;;;;;;;11.70;7.27;;;;;;;;;;5067075;28;20234;-75
2023/12/18 12:45:07;;;;;;;16.13;7.00;;;;;;;;;;5070275;28;20526;-76
2023/12/18 12:47:33;;;;;;;13.07;6.90;;;;;;;;;;5071342;28;20192;-72
2023/12/18 12:50:07;;;;;;;13.63;7.27;;;;;;;;;;5077746;28;20564;-76
2023/12/18 12:52:43;;;;;;;13.13;7.27;;;;;;;;;;5067633;28;20285;-75
2023/12/18 12:55:09;;;;;;;10.60;7.33;;;;;;;;;;5065626;28;20202;-75
2023/12/18 12:57:35;;;;;;;10.47;6.33;;;;;;;;;;5077504;28;20211;-74
2023/12/18 13:00:02;;;;;;;11.30;6.40;;;;;;;;;;5075281;28;20186;-73
2023/12/18 13:02:28;;;;;;;14.53;6.63;;;;;;;;;;5054496;28;20657;-73
2023/12/18 13:04:54;;;;;;;11.30;6.70;;;;;;;;;;5072411;28;20315;-74
2023/12/18 13:07:21;;;;;;;12.57;6.80;;;;;;;;;;5072308;28;20211;-74
2023/12/18 13:09:47;;;;;;;16.07;6.80;;;;;;;;;;5077708;28;20218;-73
2023/12/18 13:12:14;;;;;;;11.20;6.60;;;;;;;;;;5069087;28;20578;-74
2023/12/18 13:14:49;;;;;;;13.53;7.27;;;;;;;;;;5069043;28;20190;-75
2023/12/18 13:17:15;;;;;;;11.50;6.47;;;;;;;;;;5072968;28;20279;-75
2023/12/18 13:19:41;;;;;;;10.93;6.73;;;;;;;;;;5069173;28;20215;-74
2023/12/18 13:22:07;;;;;;;11.13;6.70;;;;;;;;;;5060894;28;20838;-74
2023/12/18 13:24:34;;;;;;;12.40;6.47;;;;;;;;;;5073385;28;20217;-73
2023/12/18 13:27:00;;;;;;;10.13;6.70;;;;;;;;;;5071265;28;20195;-76
2023/12/18 13:29:33;;;;;;;12.20;6.20;;;;;;;;;;5077322;28;20247;-75
2023/12/18 13:32:00;;;;;;;9.60;6.07;;;;;;;;;;5068320;28;20294;-75
2023/12/18 13:34:26;;;;;;;12.00;6.27;;;;;;;;;;5069324;28;20203;-75
2023/12/18 13:36:52;;;;;;;10.87;6.80;;;;;;;;;;5067982;28;20285;-74
2023/12/18 13:39:18;;;;;;;12.43;6.00;;;;;;;;;;5077000;28;20214;-75
2023/12/18 13:41:44;;;;;;;10.43;6.23;;;;;;;;;;5072730;28;20167;-76
2023/12/18 13:44:11;;;;;;;12.00;6.47;;;;;;;;;;5073268;28;20216;-74
2023/12/18 13:46:37;;;;;;;12.67;6.97;;;;;;;;;;5072004;28;20211;-75
2023/12/18 13:49:03;;;;;;;14.03;7.00;;;;;;;;;;5071815;28;20700;-74
2023/12/18 13:51:29;;;;;;;8.93;6.13;;;;;;;;;;5066748;28;20243;-75
2023/12/18 13:53:55;;;;;;;10.10;6.03;;;;;;;;;;5069961;28;20178;-75
2023/12/18 13:56:21;;;;;;;13.17;6.07;;;;;;;;;;5070552;28;20191;-76
2023/12/18 13:58:47;;;;;;;8.57;6.03;;;;;;;;;;5068578;28;20670;-75
2023/12/18 14:01:13;;;;;;;7.77;5.60;;;;;;;;;;5073844;28;20621;-77
2023/12/18 14:03:39;;;;;;;8.97;5.83;;;;;;;;;;5068027;28;20203;-76
2023/12/18 14:06:05;;;;;;;12.43;6.23;;;;;;;;;;5072073;28;20202;-78
2023/12/18 14:08:31;;;;;;;10.60;5.97;;;;;;;;;;5074278;28;20184;-77
2023/12/18 14:10:57;;;;;;;11.37;5.73;;;;;;;;;;5076102;28;20214;-75
2023/12/18 14:13:24;;;;;;;9.60;5.97;;;;;;;;;;5074235;28;20569;-79
2023/12/18 14:15:50;;;;;;;11.07;6.30;;;;;;;;;;5077293;28;20276;-79
2023/12/18 14:18:16;;;;;;;9.60;6.10;;;;;;;;;;5079194;28;20214;-80
2023/12/18 14:20:42;;;;;;;14.67;5.90;;;;;;;;;;5074145;28;20646;-79
2023/12/18 14:23:08;;;;;;;9.97;6.20;;;;;;;;;;5081170;28;20255;-79
2023/12/18 14:25:34;;;;;;;11.83;6.27;;;;;;;;;;5070250;28;20230;-79
2023/12/18 14:28:00;;;;;;;9.63;5.23;;;;;;;;;;5077847;28;20237;-80
2023/12/18 14:30:28;;;;;;;9.23;5.50;;;;;;;;;;5064479;28;20313;-78
2023/12/18 14:32:54;;;;;;;11.33;5.60;;;;;;;;;;5060445;28;20259;-77